← Previous June 18, 2024 8:06 AM

FTUS43 KDMX 160321 AAB
TAFFOD
TAF AMD
KFOD 160321Z 1603/1624 18012G19KT P6SM -SHRA BKN050
     FM160500 17014KT 6SM -SHRA VCTS SCT025 BKN040CB
     FM160700 17013G21KT P6SM VCSH BKN100
     FM161100 19013G21KT P6SM FEW240=